LiveATC.Net - Listen to live air traffic control over the Internet!


ICAO: KCRE  IATA: CRE   Airport: Grand Strand Airport
City: North Myrtle Beach   State/Province: South Carolina
Country: United States   Continent: North America
KCRE METAR Weather: KCRE 250253Z AUTO 03009KT 10SM OVC006 23/22 A3006 RMK AO1 LTG DSNT S RAE19 SLP180 P0000 60001 T02330217 53007
KCRE Flight Activity (FlightAware)
KCRE Airport Info   (iFlightPlanner)
KCRE VFR Sectional Chart   (iFlightPlanner) 
KCRE IFR Low Chart   (iFlightPlanner) 

KCRE Ground/Tower
Feed Status: UP   Listeners: 0
Listen in your browser - HTML5 player (in browser, HTML5)
Click here to listen with your own player (launches your MP3 player)
KCRE Ground/Tower Audio Archives
FacilityFrequency
Strand Ground121.800
Strand Tower124.600

NOTICE

Unauthorized use prohibited. See LiveATC.net Terms of Service


Airport/ARTCC Code
Frequency Search
(e.g., 124.400, 128.75)
Site-wide search
 


Browse LiveATC Feeds
Top 50 LiveATC Feeds
LiveATC Feed Map
Bad Weather Areas

LiveATC FAQ
Offer LiveATC feed
Contact LiveATC.net
Press Inquiries

LiveATC on iPhone
LiveATC on Android

Windows Phone
Windows 8/10

LiveATC Mobile
(Mobile browser)

ATC Audio Archives
Interesting Recordings

LiveATC Forums


Home Page
About LiveATC.net
Make a Donation
Terms of Use
Privacy Policy

Canadian Air Freqs

AIRMETs/SIGMETs

FAA Airport Status
Nat'l Airspace Status
Arrival Demand Charts


Server Software By:
Icecast.org
Liquidsoap